Time;durP1;ratioP1;P1;durP2;ratioP2;P2;SDS_P1;SDS_P2;PMS_P1;PMS_P2;Temp;Humidity;BMP_temperature;BMP_pressure;BME280_temperature;BME280_humidity;BME280_pressure;Samples;Min_cycle;Max_cycle;Signal;HPM_P1;HPM_P2
2021/12/25 00:02:26;;;;;;;3.80;1.70;;;-1.10;99.90;;;;;;4855509;29;20472;-58
2021/12/25 00:04:52;;;;;;;6.40;1.63;;;-1.10;99.90;;;;;;4886599;29;20052;-59
2021/12/25 00:07:18;;;;;;;5.47;1.38;;;-1.10;99.90;;;;;;4886322;29;20105;-59
2021/12/25 00:09:43;;;;;;;5.72;1.60;;;-1.20;99.90;;;;;;4886169;29;20448;-59
2021/12/25 00:12:10;;;;;;;1.73;1.15;;;-1.20;99.90;;;;;;4884267;29;20064;-59
2021/12/25 00:14:35;;;;;;;8.57;1.42;;;-1.30;99.90;;;;;;4886362;29;20041;-57
2021/12/25 00:17:02;;;;;;;5.30;1.35;;;-1.30;99.90;;;;;;4884904;29;20049;-59
2021/12/25 00:19:27;;;;;;;3.80;1.80;;;-1.30;99.90;;;;;;4872253;29;20052;-57
2021/12/25 00:21:53;;;;;;;5.70;1.20;;;-1.30;99.90;;;;;;4870452;29;20089;-59
2021/12/25 00:24:20;;;;;;;7.65;1.48;;;-1.40;99.90;;;;;;4886193;29;20053;-58
2021/12/25 00:26:57;;;;;;;5.95;1.50;;;-1.40;99.90;;;;;;4885739;29;20041;-59
2021/12/25 00:32:07;;;;;;;6.15;1.40;;;-1.50;99.90;;;;;;4884314;29;20053;-60
2021/12/25 00:34:33;;;;;;;5.30;1.40;;;-1.60;99.90;;;;;;4872407;29;20055;-57
2021/12/25 00:36:58;;;;;;;5.55;1.35;;;-1.60;99.90;;;;;;4884650;29;20045;-59
2021/12/25 00:39:28;;;;;;;3.47;1.30;;;-1.60;99.90;;;;;;4885752;29;20063;-59
2021/12/25 00:41:54;;;;;;;3.97;1.52;;;-1.60;99.90;;;;;;4857286;29;20097;-58
2021/12/25 00:44:19;;;;;;;3.85;1.45;;;-1.70;99.90;;;;;;4871775;29;20123;-59
2021/12/25 00:46:45;;;;;;;7.55;1.67;;;-1.60;99.90;;;;;;4886014;29;20167;-59
2021/12/25 00:49:11;;;;;;;2.30;1.48;;;-1.70;99.90;;;;;;4866635;29;20045;-58
2021/12/25 00:51:37;;;;;;;5.80;1.60;;;-1.70;99.90;;;;;;4885255;29;20136;-60
2021/12/25 00:54:03;;;;;;;4.13;1.40;;;-1.80;99.90;;;;;;4885589;29;20163;-59
2021/12/25 00:56:29;;;;;;;4.60;1.23;;;-1.80;99.90;;;;;;4886127;29;20052;-57
2021/12/25 00:58:54;;;;;;;5.65;1.30;;;-1.80;99.90;;;;;;4884744;29;20071;-59
2021/12/25 01:01:20;;;;;;;5.35;1.35;;;-1.80;99.90;;;;;;4885646;29;20040;-59
2021/12/25 01:03:47;;;;;;;2.88;1.10;;;-1.90;99.90;;;;;;4879899;29;20083;-59
2021/12/25 01:06:13;;;;;;;5.18;1.10;;;-1.90;99.90;;;;;;4883614;29;20097;-59
2021/12/25 01:08:39;;;;;;;6.60;1.20;;;-2.00;99.90;;;;;;4885288;29;20055;-59
2021/12/25 01:11:06;;;;;;;1.80;1.00;;;-2.00;99.90;;;;;;4867489;29;20055;-59
2021/12/25 01:13:37;;;;;;;2.88;1.20;;;-2.00;99.90;;;;;;4884005;29;20080;-59
2021/12/25 01:31:52;;;;;;;1.67;0.88;;;-2.20;99.90;;;;;;4879057;29;20108;-59
2021/12/25 01:37:18;;;;;;;4.40;1.10;;;-2.30;99.90;;;;;;4885168;29;20052;-59
2021/12/25 01:50:10;;;;;;;5.47;1.15;;;-2.50;99.90;;;;;;4871311;29;20401;-59
2021/12/25 01:52:36;;;;;;;1.67;1.00;;;-2.50;99.90;;;;;;4867165;29;20504;-59
2021/12/25 01:55:09;;;;;;;3.92;1.08;;;-2.60;99.90;;;;;;4883843;29;20112;-60
2021/12/25 01:57:35;;;;;;;;;;;-2.60;99.90;;;;;;4885310;29;20123;-59
2021/12/25 02:00:03;;;;;;;6.18;1.15;;;-2.60;99.90;;;;;;4883837;29;19931;-59
2021/12/25 02:02:28;;;;;;;1.98;0.90;;;-2.60;99.90;;;;;;4882184;29;20052;-59
2021/12/25 02:04:55;;;;;;;4.05;1.08;;;-2.60;99.90;;;;;;4883518;29;20056;-57
2021/12/25 02:07:21;;;;;;;2.65;1.00;;;-2.60;99.90;;;;;;4883692;29;20071;-60
2021/12/25 02:09:48;;;;;;;2.30;1.00;;;-2.70;99.90;;;;;;4883057;29;20668;-58
2021/12/25 02:12:15;;;;;;;1.73;1.10;;;-2.70;99.90;;;;;;4882604;29;20080;-59
2021/12/25 02:14:43;;;;;;;2.80;1.00;;;-2.80;99.90;;;;;;4882023;29;20543;-59
2021/12/25 02:17:22;;;;;;;7.00;0.90;;;-2.80;99.90;;;;;;4881563;29;20101;-58
2021/12/25 02:19:56;;;;;;;3.08;1.00;;;-2.80;99.90;;;;;;4885796;29;20103;-59
2021/12/25 02:22:28;;;;;;;4.18;1.33;;;-2.80;99.90;;;;;;4886562;29;20576;-59
2021/12/25 02:24:54;;;;;;;1.85;1.08;;;-2.80;99.90;;;;;;4886396;29;20037;-59
2021/12/25 02:27:19;;;;;;;4.93;0.95;;;-2.90;99.90;;;;;;4885953;29;20049;-59
2021/12/25 02:29:45;;;;;;;2.42;1.05;;;-2.90;99.90;;;;;;4874616;29;20059;-58
2021/12/25 02:32:11;;;;;;;1.80;0.95;;;-2.90;99.90;;;;;;4887649;29;20115;-58
2021/12/25 02:34:37;;;;;;;1.67;1.10;;;-2.90;99.90;;;;;;4887052;29;20052;-59
2021/12/25 02:37:03;;;;;;;1.55;1.10;;;-2.90;99.90;;;;;;4885837;29;20048;-58
2021/12/25 02:39:29;;;;;;;2.45;0.73;;;-2.90;99.90;;;;;;4888700;29;20044;-59
2021/12/25 02:41:55;;;;;;;2.00;0.90;;;-2.90;99.90;;;;;;4886539;29;20349;-59
2021/12/25 02:44:21;;;;;;;1.25;0.90;;;-2.90;99.90;;;;;;4887595;29;20119;-59
2021/12/25 02:46:48;;;;;;;1.17;0.80;;;-3.00;99.90;;;;;;4885978;29;20520;-59
2021/12/25 02:49:14;;;;;;;1.73;0.77;;;-3.00;99.90;;;;;;4868574;29;20130;-59
2021/12/25 02:51:45;;;;;;;0.80;0.80;;;-3.00;99.90;;;;;;4886392;29;20068;-59
2021/12/25 02:54:11;;;;;;;2.30;0.80;;;-3.00;99.90;;;;;;4886993;29;20492;-59
2021/12/25 02:56:37;;;;;;;1.85;0.75;;;-3.00;99.90;;;;;;4887245;29;20041;-58
2021/12/25 02:59:03;;;;;;;0.90;0.80;;;-3.10;99.90;;;;;;4886264;29;20051;-59
2021/12/25 03:01:29;;;;;;;0.90;0.80;;;-3.10;99.90;;;;;;4887392;29;20136;-58
2021/12/25 03:03:55;;;;;;;2.70;1.05;;;-3.10;99.90;;;;;;4868694;29;20052;-59
2021/12/25 03:06:23;;;;;;;1.80;0.90;;;-3.10;99.90;;;;;;4883012;29;20151;-58
2021/12/25 03:08:49;;;;;;;1.83;0.73;;;-3.10;99.90;;;;;;4887634;29;20111;-59
2021/12/25 03:11:15;;;;;;;0.95;0.70;;;-3.20;99.90;;;;;;4885953;29;20060;-59
2021/12/25 03:13:56;;;;;;;2.45;0.90;;;-3.20;99.90;;;;;;4883865;29;20048;-59
2021/12/25 03:16:23;;;;;;;2.65;0.88;;;-3.20;99.90;;;;;;4885484;29;20485;-58
2021/12/25 03:18:52;;;;;;;2.88;0.90;;;-3.20;99.90;;;;;;4886195;29;20045;-58
2021/12/25 03:21:18;;;;;;;3.28;0.90;;;-3.20;99.90;;;;;;4867481;29;20056;-58
2021/12/25 03:23:46;;;;;;;2.58;1.00;;;-3.30;99.90;;;;;;4886232;29;20048;-60
2021/12/25 03:26:12;;;;;;;1.92;0.70;;;-3.30;99.90;;;;;;4870415;29;20497;-59
2021/12/25 03:28:42;;;;;;;1.35;0.90;;;-3.30;99.90;;;;;;4885970;29;20045;-58
2021/12/25 03:31:15;;;;;;;2.85;0.98;;;-3.30;99.90;;;;;;4884806;29;20083;-59
2021/12/25 03:33:43;;;;;;;1.10;0.98;;;-3.30;99.90;;;;;;4884295;29;20544;-59
2021/12/25 03:36:09;;;;;;;2.47;0.77;;;-3.30;99.90;;;;;;4885875;29;20052;-59
2021/12/25 03:38:35;;;;;;;4.97;1.17;;;-3.40;99.90;;;;;;4886115;29;20053;-59
2021/12/25 03:41:01;;;;;;;1.80;0.80;;;-3.40;99.90;;;;;;4884764;29;20060;-58
2021/12/25 03:43:28;;;;;;;2.13;1.02;;;-3.40;99.90;;;;;;4885747;29;20147;-59
2021/12/25 03:45:55;;;;;;;1.27;0.82;;;-3.40;99.90;;;;;;4867792;29;22159;-57
2021/12/25 03:59:07;;;;;;;2.63;0.82;;;-3.50;99.90;;;;;;4866989;29;20049;-58
2021/12/25 04:04:17;;;;;;;1.40;0.90;;;-3.50;99.90;;;;;;4881158;29;20068;-57
2021/12/25 04:06:55;;;;;;;1.50;0.70;;;-3.50;99.90;;;;;;4885507;29;20187;-58
2021/12/25 04:09:26;;;;;;;1.75;1.00;;;-3.50;99.90;;;;;;4884952;29;20103;-58
2021/12/25 04:12:04;;;;;;;1.73;1.00;;;-3.60;99.90;;;;;;4871340;29;20548;-58
2021/12/25 04:14:30;;;;;;;2.20;1.27;;;-3.60;99.90;;;;;;4886506;29;20132;-59
2021/12/25 04:16:56;;;;;;;1.13;0.80;;;-3.60;99.90;;;;;;4884397;29;20048;-59
2021/12/25 04:19:21;;;;;;;1.05;0.90;;;-3.70;99.90;;;;;;4886093;29;20124;-58
2021/12/25 04:22:15;;;;;;;1.83;0.82;;;-3.70;99.90;;;;;;4883897;29;20060;-58
2021/12/25 04:24:38;;;;;;;0.95;0.90;;;-3.70;99.90;;;;;;4883750;29;20119;-59
2021/12/25 04:27:07;;;;;;;3.83;0.98;;;-3.70;99.90;;;;;;4886652;29;20539;-59
2021/12/25 04:30:24;;;;;;;2.85;0.98;;;-3.70;99.90;;;;;;4883351;29;20056;-58
2021/12/25 05:04:46;;;;;;;0.85;0.85;;;-3.90;99.90;;;;;;4865886;29;20559;-59
2021/12/25 05:07:13;;;;;;;2.30;0.90;;;-3.90;99.90;;;;;;4881759;29;20056;-58
2021/12/25 05:09:40;;;;;;;2.28;0.93;;;-3.90;99.90;;;;;;4852151;29;20125;-58
2021/12/25 05:12:06;;;;;;;1.00;0.90;;;-3.90;99.90;;;;;;4883804;29;20512;-58
2021/12/25 05:14:32;;;;;;;1.42;0.90;;;-3.90;99.90;;;;;;4884015;29;20051;-58
2021/12/25 05:16:58;;;;;;;2.63;0.90;;;-3.90;99.90;;;;;;4884896;29;20568;-58
2021/12/25 05:19:25;;;;;;;1.95;0.90;;;-3.90;99.90;;;;;;4883909;29;20529;-58
2021/12/25 05:21:51;;;;;;;1.20;0.88;;;-3.90;99.90;;;;;;4881485;29;20049;-58
2021/12/25 05:24:17;;;;;;;2.13;0.88;;;-3.90;99.90;;;;;;4884856;29;20090;-59
2021/12/25 05:26:44;;;;;;;2.13;0.98;;;-3.90;99.90;;;;;;4885961;29;20083;-58
2021/12/25 05:29:10;;;;;;;2.60;0.98;;;-3.90;99.90;;;;;;4883236;29;20068;-58
2021/12/25 05:31:36;;;;;;;2.13;1.00;;;-3.90;99.90;;;;;;4868272;29;20053;-57
2021/12/25 05:34:03;;;;;;;1.08;0.80;;;-3.90;99.90;;;;;;4882433;29;20049;-59
2021/12/25 05:36:28;;;;;;;3.53;1.10;;;-3.90;99.90;;;;;;4885040;29;20594;-58
2021/12/25 05:38:58;;;;;;;1.17;1.00;;;-3.90;99.90;;;;;;4885077;29;20083;-58
2021/12/25 05:41:29;;;;;;;1.45;0.90;;;-3.90;99.90;;;;;;4884546;29;20063;-57
2021/12/25 05:43:56;;;;;;;2.38;0.90;;;-3.90;99.90;;;;;;4881878;29;20060;-58
2021/12/25 05:46:22;;;;;;;4.00;1.05;;;-3.90;99.90;;;;;;4883910;29;20457;-58
2021/12/25 05:48:50;;;;;;;5.28;1.00;;;-3.90;99.90;;;;;;4882299;29;20088;-58
2021/12/25 05:51:18;;;;;;;3.13;0.95;;;-3.90;99.90;;;;;;4883578;29;20390;-58
2021/12/25 05:53:44;;;;;;;2.55;0.93;;;-4.00;99.90;;;;;;4883973;29;20515;-58
2021/12/25 05:56:10;;;;;;;1.75;1.00;;;-3.80;99.90;;;;;;4889507;29;20045;-58
2021/12/25 05:58:36;;;;;;;2.30;1.00;;;-3.90;99.90;;;;;;4886881;29;20056;-58
2021/12/25 06:01:04;;;;;;;3.78;1.00;;;-3.90;99.90;;;;;;4887361;29;20041;-58
2021/12/25 06:03:31;;;;;;;2.70;1.20;;;-3.90;99.90;;;;;;4887442;29;20501;-58
2021/12/25 06:05:57;;;;;;;3.70;1.10;;;-3.90;99.90;;;;;;4886975;29;20623;-58
2021/12/25 06:08:27;;;;;;;6.40;1.25;;;-3.90;99.90;;;;;;4887548;29;20410;-58
2021/12/25 06:10:53;;;;;;;1.08;0.80;;;-3.90;99.90;;;;;;4887096;29;20060;-58
2021/12/25 06:13:21;;;;;;;1.00;0.90;;;-3.90;99.90;;;;;;4868603;29;20135;-59
2021/12/25 06:15:49;;;;;;;5.20;1.15;;;-3.90;99.90;;;;;;4884014;29;20052;-58
2021/12/25 06:18:15;;;;;;;2.55;0.95;;;-3.90;99.90;;;;;;4886972;29;20053;-57
2021/12/25 06:20:41;;;;;;;0.82;0.82;;;-3.90;99.90;;;;;;4887523;29;20517;-58
2021/12/25 06:23:07;;;;;;;2.22;1.25;;;-3.90;99.90;;;;;;4886291;29;20087;-57
2021/12/25 06:25:33;;;;;;;2.53;1.10;;;-3.90;99.90;;;;;;4889005;29;20059;-58
2021/12/25 06:27:59;;;;;;;1.40;0.98;;;-3.90;99.90;;;;;;4887799;29;20055;-58
2021/12/25 06:30:26;;;;;;;4.22;0.88;;;-4.00;99.90;;;;;;4884754;29;20475;-58
2021/12/25 06:32:51;;;;;;;2.40;0.98;;;-4.00;99.90;;;;;;4870653;29;20144;-57
2021/12/25 06:35:17;;;;;;;3.95;1.00;;;-4.00;99.90;;;;;;4868485;29;20083;-56
2021/12/25 06:37:46;;;;;;;3.28;1.13;;;-4.00;99.90;;;;;;4888536;29;20111;-58
2021/12/25 06:40:17;;;;;;;1.50;0.90;;;-4.00;99.90;;;;;;4886872;29;20056;-58
2021/12/25 06:42:44;;;;;;;3.25;0.90;;;-4.00;99.90;;;;;;4885043;29;20163;-58
2021/12/25 06:45:10;;;;;;;1.20;0.82;;;-4.00;99.90;;;;;;4868737;29;20500;-58
2021/12/25 06:47:36;;;;;;;2.47;1.00;;;-4.00;99.90;;;;;;4867969;29;20044;-58
2021/12/25 06:50:04;;;;;;;3.80;1.05;;;-4.00;99.90;;;;;;4885677;29;20053;-58
2021/12/25 06:52:30;;;;;;;0.95;0.75;;;-4.00;99.90;;;;;;4886307;29;20131;-58
2021/12/25 06:54:56;;;;;;;4.07;1.20;;;-4.00;99.90;;;;;;4884796;29;20817;-57
2021/12/25 06:57:21;;;;;;;1.90;0.93;;;-4.10;99.90;;;;;;4869456;29;20041;-59
2021/12/25 06:59:47;;;;;;;2.83;1.00;;;-4.10;99.90;;;;;;4869155;29;20504;-58
2021/12/25 07:02:13;;;;;;;1.58;1.00;;;-4.10;99.90;;;;;;4884450;29;20044;-58
2021/12/25 07:04:39;;;;;;;3.30;1.20;;;-4.10;99.90;;;;;;4883481;29;20077;-58
2021/12/25 07:07:05;;;;;;;2.17;1.00;;;-4.10;99.90;;;;;;4885686;29;20058;-57
2021/12/25 07:09:31;;;;;;;1.65;1.00;;;-4.20;99.90;;;;;;4886826;29;20076;-57
2021/12/25 07:11:57;;;;;;;3.90;1.00;;;-4.20;99.90;;;;;;4884497;29;20060;-57
2021/12/25 07:14:23;;;;;;;1.42;0.80;;;-4.20;99.90;;;;;;4886284;29;20507;-59
2021/12/25 07:16:49;;;;;;;4.38;1.10;;;-4.20;99.90;;;;;;4875172;29;20041;-57
2021/12/25 07:19:15;;;;;;;1.55;0.90;;;-4.20;99.90;;;;;;4885641;29;20093;-58
2021/12/25 07:21:45;;;;;;;1.13;0.80;;;-4.20;99.90;;;;;;4866692;29;20049;-56
2021/12/25 07:24:13;;;;;;;3.33;1.10;;;-4.20;99.90;;;;;;4885295;29;20142;-58
2021/12/25 07:26:39;;;;;;;2.50;0.90;;;-4.20;99.90;;;;;;4867386;29;20049;-58
2021/12/25 07:29:06;;;;;;;3.08;1.00;;;-4.10;99.90;;;;;;4886036;29;20061;-56
2021/12/25 07:31:32;;;;;;;2.58;1.10;;;-4.20;99.90;;;;;;4884515;29;20591;-57
2021/12/25 07:33:58;;;;;;;2.17;1.08;;;-4.30;99.90;;;;;;4867443;29;20158;-57
2021/12/25 07:36:23;;;;;;;1.17;1.08;;;-4.30;99.90;;;;;;4884617;29;20082;-58
2021/12/25 07:38:50;;;;;;;3.30;0.98;;;-4.20;99.90;;;;;;4883983;29;20052;-59
2021/12/25 07:41:16;;;;;;;2.65;1.20;;;-4.30;99.90;;;;;;4882882;29;20514;-57
2021/12/25 07:43:42;;;;;;;1.92;1.05;;;-4.30;99.90;;;;;;4864947;29;20048;-58
2021/12/25 07:46:08;;;;;;;2.47;1.10;;;-4.30;99.90;;;;;;4883053;29;20056;-58
2021/12/25 07:48:34;;;;;;;1.92;0.90;;;-4.30;99.90;;;;;;4884055;29;20107;-57
2021/12/25 07:51:02;;;;;;;4.43;1.10;;;-4.30;99.90;;;;;;4883674;29;20048;-58
2021/12/25 07:53:32;;;;;;;1.30;1.10;;;-4.30;99.90;;;;;;4882345;29;20457;-57
2021/12/25 07:55:58;;;;;;;4.97;1.20;;;-4.30;99.90;;;;;;4882879;29;20044;-58
2021/12/25 07:58:24;;;;;;;3.60;1.13;;;-4.30;99.90;;;;;;4884384;29;20611;-57
2021/12/25 08:00:50;;;;;;;2.67;1.10;;;-4.30;99.90;;;;;;4885021;29;20496;-58
2021/12/25 08:03:16;;;;;;;5.47;1.20;;;-4.40;99.90;;;;;;4885423;29;20049;-58
2021/12/25 08:05:43;;;;;;;3.40;1.10;;;-4.30;99.90;;;;;;4884783;29;20599;-58
2021/12/25 08:08:11;;;;;;;2.58;1.13;;;-4.40;99.90;;;;;;4866954;29;20052;-58
2021/12/25 08:10:38;;;;;;;2.17;1.05;;;-4.40;99.90;;;;;;4881837;29;20432;-58
2021/12/25 08:13:04;;;;;;;2.13;1.00;;;-4.40;99.90;;;;;;4885869;29;20120;-57
2021/12/25 08:15:30;;;;;;;1.33;0.93;;;-4.40;99.90;;;;;;4888038;29;20116;-58
2021/12/25 08:17:58;;;;;;;4.20;1.17;;;-4.40;99.90;;;;;;4885046;29;20127;-58
2021/12/25 08:20:24;;;;;;;3.40;1.10;;;-4.40;99.90;;;;;;4884227;29;20401;-58
2021/12/25 08:22:50;;;;;;;3.70;1.23;;;-4.40;99.90;;;;;;4871973;29;20084;-59
2021/12/25 08:25:17;;;;;;;2.13;1.17;;;-3.60;99.90;;;;;;4884275;29;20425;-59
2021/12/25 08:27:44;;;;;;;3.90;1.15;;;-4.40;99.90;;;;;;4883510;29;20045;-57
2021/12/25 08:30:14;;;;;;;3.00;1.17;;;-4.40;99.90;;;;;;4881208;29;20044;-57
2021/12/25 08:32:41;;;;;;;3.83;1.42;;;-4.40;99.90;;;;;;4864583;29;20049;-59
2021/12/25 08:35:09;;;;;;;2.00;1.20;;;-4.40;99.90;;;;;;4882211;29;20052;-58
2021/12/25 08:37:34;;;;;;;4.07;1.10;;;-4.40;99.90;;;;;;4883797;29;20587;-59
2021/12/25 08:40:01;;;;;;;1.50;1.00;;;-4.40;99.90;;;;;;4884337;29;20045;-57
2021/12/25 08:42:27;;;;;;;4.15;1.58;;;-4.40;99.90;;;;;;4884871;29;20080;-58
2021/12/25 08:47:29;;;;;;;4.30;1.15;;;-4.40;99.90;;;;;;4869293;29;20508;-57
2021/12/25 08:49:55;;;;;;;4.18;1.10;;;-4.40;99.90;;;;;;4883087;29;20056;-59
2021/12/25 08:52:23;;;;;;;3.10;1.30;;;-4.40;99.90;;;;;;4884032;29;20067;-58
2021/12/25 08:54:49;;;;;;;2.75;1.10;;;-4.40;99.90;;;;;;4883668;29;20536;-57
2021/12/25 08:57:17;;;;;;;6.88;1.40;;;-4.40;99.90;;;;;;4885577;29;20044;-58
2021/12/25 08:59:43;;;;;;;1.25;0.90;;;-4.40;99.90;;;;;;4883930;29;20036;-58
2021/12/25 09:02:13;;;;;;;3.35;1.17;;;-4.30;99.90;;;;;;4882134;29;20091;-58
2021/12/25 09:04:41;;;;;;;4.10;1.05;;;-4.30;99.90;;;;;;4882374;29;20128;-59
2021/12/25 09:07:07;;;;;;;3.05;1.10;;;-4.30;99.90;;;;;;4884351;29;20084;-56
2021/12/25 09:09:33;;;;;;;3.67;1.08;;;-4.30;99.90;;;;;;4871846;29;20075;-58
2021/12/25 09:11:59;;;;;;;4.45;1.10;;;-4.30;99.90;;;;;;4883111;29;20166;-59
2021/12/25 09:14:26;;;;;;;1.42;1.02;;;-4.30;99.90;;;;;;4865645;29;20041;-58
2021/12/25 09:16:52;;;;;;;1.17;1.08;;;-4.20;99.90;;;;;;4883696;29;20452;-57
2021/12/25 09:19:19;;;;;;;3.08;1.08;;;-4.20;99.90;;;;;;4872195;29;20044;-58
2021/12/25 09:21:45;;;;;;;2.22;0.93;;;-4.20;99.90;;;;;;4882620;29;20061;-58
2021/12/25 09:24:10;;;;;;;5.05;1.27;;;-4.10;99.90;;;;;;4884127;29;20055;-58
2021/12/25 09:26:37;;;;;;;3.70;1.20;;;-4.10;99.90;;;;;;4884159;29;20045;-59
2021/12/25 09:29:03;;;;;;;4.03;1.30;;;-4.10;99.90;;;;;;4885615;29;20048;-58
2021/12/25 09:31:29;;;;;;;3.70;1.40;;;-4.10;99.90;;;;;;4886580;29;20053;-58
2021/12/25 09:33:55;;;;;;;1.88;1.00;;;-4.10;99.90;;;;;;4868172;29;20103;-58
2021/12/25 09:36:21;;;;;;;4.32;1.48;;;-4.00;99.90;;;;;;4887304;29;20124;-57
2021/12/25 09:38:49;;;;;;;4.80;1.30;;;-4.00;99.90;;;;;;4886870;29;20044;-58
2021/12/25 09:41:16;;;;;;;2.45;1.17;;;-4.00;99.90;;;;;;4886224;29;20052;-58
2021/12/25 09:43:44;;;;;;;2.03;0.90;;;-3.90;99.90;;;;;;4887483;29;20143;-59
2021/12/25 09:46:10;;;;;;;1.70;1.25;;;-3.90;99.90;;;;;;4875891;29;20461;-58
2021/12/25 09:48:36;;;;;;;3.17;1.15;;;-3.90;99.90;;;;;;4887882;29;20165;-57
2021/12/25 09:51:04;;;;;;;2.08;1.10;;;-3.80;99.90;;;;;;4875876;29;20085;-58
2021/12/25 09:53:31;;;;;;;4.75;1.27;;;-3.80;99.90;;;;;;4886143;29;20049;-58
2021/12/25 09:55:57;;;;;;;3.88;1.00;;;-3.70;99.90;;;;;;4887772;29;20128;-59
2021/12/25 09:58:23;;;;;;;4.20;1.35;;;-3.70;99.90;;;;;;4875169;29;20493;-58
2021/12/25 10:00:54;;;;;;;2.75;1.00;;;-3.60;99.90;;;;;;4870896;29;20139;-59
2021/12/25 10:03:20;;;;;;;3.10;1.20;;;-3.60;99.90;;;;;;4886147;29;20093;-59
2021/12/25 10:05:49;;;;;;;1.20;1.10;;;-3.50;99.90;;;;;;4868840;29;20063;-58
2021/12/25 10:08:24;;;;;;;5.28;2.03;;;-3.50;99.90;;;;;;4885875;29;20060;-58
2021/12/25 10:10:55;;;;;;;4.65;1.17;;;-3.40;99.90;;;;;;4869386;29;20515;-59
2021/12/25 10:13:39;;;;;;;1.88;1.05;;;-3.30;99.90;;;;;;4869043;29;20048;-58
2021/12/25 10:16:25;;;;;;;6.88;1.02;;;-3.20;99.90;;;;;;4885826;29;20052;-59
2021/12/25 10:18:52;;;;;;;2.78;1.00;;;-3.10;99.90;;;;;;4885343;29;20061;-59
2021/12/25 10:21:27;;;;;;;1.90;1.10;;;-3.00;99.90;;;;;;4874571;29;20056;-58
2021/12/25 10:24:18;;;;;;;4.80;1.15;;;-2.90;99.90;;;;;;4885622;29;20055;-58
2021/12/25 10:26:47;;;;;;;5.18;1.33;;;-2.70;99.90;;;;;;4885952;29;20061;-58
2021/12/25 10:29:29;;;;;;;3.67;1.15;;;-2.60;99.90;;;;;;4869207;29;20405;-59
2021/12/25 10:32:02;;;;;;;3.05;1.30;;;-2.50;99.90;;;;;;4866400;29;20127;-58
2021/12/25 10:34:31;;;;;;;1.88;1.30;;;-2.40;99.90;;;;;;4884430;29;20468;-59
2021/12/25 10:37:12;;;;;;;5.82;1.58;;;-2.30;99.90;;;;;;4885422;29;20076;-58
2021/12/25 10:39:38;;;;;;;1.70;1.10;;;-1.80;99.90;;;;;;4885276;29;20507;-57
2021/12/25 10:42:13;;;;;;;2.72;1.20;;;-2.10;99.90;;;;;;4884582;29;20063;-58
2021/12/25 10:44:42;;;;;;;3.38;1.13;;;-2.10;99.90;;;;;;4886202;29;20368;-57
2021/12/25 10:47:14;;;;;;;6.95;1.13;;;-2.00;99.90;;;;;;4886982;29;20055;-59
2021/12/25 10:49:53;;;;;;;2.20;1.10;;;-1.90;99.90;;;;;;4874755;29;20053;-59
2021/12/25 10:52:33;;;;;;;2.20;1.55;;;-1.90;99.90;;;;;;4868480;29;20171;-59
2021/12/25 10:55:02;;;;;;;5.65;1.48;;;-1.80;99.90;;;;;;4886822;29;20051;-59
2021/12/25 10:57:42;;;;;;;5.55;1.27;;;-1.70;99.90;;;;;;4886942;29;20529;-59
2021/12/25 11:00:22;;;;;;;4.90;1.40;;;-1.60;99.90;;;;;;4886118;29;20167;-59
2021/12/25 11:02:50;;;;;;;2.75;0.98;;;-1.60;99.90;;;;;;4885156;29;20045;-59
2021/12/25 11:05:26;;;;;;;4.85;1.30;;;-1.50;99.90;;;;;;4868501;29;20049;-59
2021/12/25 11:08:04;;;;;;;3.67;1.20;;;-1.40;99.90;;;;;;4884715;29;20041;-59
2021/12/25 11:10:31;;;;;;;3.25;0.88;;;-1.40;99.90;;;;;;4884854;29;20052;-57
2021/12/25 11:12:58;;;;;;;1.63;0.90;;;-1.40;99.90;;;;;;4884821;29;20041;-59
2021/12/25 11:15:27;;;;;;;2.25;1.13;;;-1.30;99.90;;;;;;4868007;29;20481;-59
2021/12/25 11:18:04;;;;;;;1.95;1.20;;;-1.30;99.90;;;;;;4885099;29;20497;-59
2021/12/25 11:20:39;;;;;;;4.43;1.20;;;-1.30;99.90;;;;;;4885284;29;20060;-59
2021/12/25 11:23:07;;;;;;;4.10;1.55;;;-1.40;99.90;;;;;;4883854;29;20508;-58
2021/12/25 11:25:36;;;;;;;6.43;1.58;;;-1.40;99.90;;;;;;4885544;29;20099;-58
2021/12/25 11:28:06;;;;;;;4.28;1.52;;;-1.50;99.90;;;;;;4886059;29;20484;-59
2021/12/25 11:30:37;;;;;;;2.95;1.80;;;-1.60;99.90;;;;;;4869232;29;20056;-58
2021/12/25 11:33:03;;;;;;;2.63;1.52;;;-1.60;99.90;;;;;;4884965;29;20088;-58
2021/12/25 11:35:33;;;;;;;2.20;1.20;;;-1.70;99.90;;;;;;4884421;29;20072;-59
2021/12/25 11:38:00;;;;;;;3.88;1.17;;;-1.80;99.90;;;;;;4874071;29;20124;-58
2021/12/25 11:40:33;;;;;;;2.40;1.27;;;-1.90;99.90;;;;;;4885411;29;20051;-57
2021/12/25 11:43:02;;;;;;;3.78;1.40;;;-1.90;99.90;;;;;;4867397;29;20131;-59
2021/12/25 11:45:33;;;;;;;4.53;1.58;;;-1.90;99.90;;;;;;4867152;29;20049;-57
2021/12/25 11:48:10;;;;;;;3.45;1.40;;;-2.00;99.90;;;;;;4868223;29;20576;-59
2021/12/25 11:50:42;;;;;;;2.42;1.38;;;-2.00;99.90;;;;;;4866581;29;20060;-58
2021/12/25 11:58:46;;;;;;;3.65;1.50;;;-2.00;99.90;;;;;;4884429;29;20045;-59
2021/12/25 12:01:27;;;;;;;6.50;1.45;;;-2.10;99.90;;;;;;4884878;29;20048;-59
2021/12/25 12:04:10;;;;;;;5.00;1.65;;;-2.10;99.90;;;;;;4884101;29;20052;-59
2021/12/25 12:06:45;;;;;;;7.22;1.33;;;-2.10;99.90;;;;;;4884350;29;20472;-59
2021/12/25 12:09:13;;;;;;;6.82;1.67;;;-2.10;99.90;;;;;;4885522;29;20057;-59
2021/12/25 12:11:42;;;;;;;2.15;1.50;;;-2.10;99.90;;;;;;4883936;29;20568;-59
2021/12/25 12:14:21;;;;;;;8.27;1.88;;;-2.10;99.90;;;;;;4883918;29;20071;-59
2021/12/25 12:17:00;;;;;;;4.72;1.40;;;-2.10;99.90;;;;;;4884431;29;20416;-58
2021/12/25 12:19:38;;;;;;;5.97;1.42;;;-2.10;99.90;;;;;;4884526;29;20099;-59
2021/12/25 12:27:36;;;;;;;5.18;1.60;;;-2.10;99.90;;;;;;4883914;29;20121;-59
2021/12/25 12:30:11;;;;;;;3.25;1.50;;;-2.10;99.90;;;;;;4867570;29;20104;-58
2021/12/25 12:32:46;;;;;;;4.45;1.45;;;-2.10;99.90;;;;;;4882820;29;20055;-58
2021/12/25 12:35:37;;;;;;;4.60;1.55;;;-2.10;99.90;;;;;;4883216;29;20108;-59
2021/12/25 12:38:39;;;;;;;4.82;1.90;;;-2.10;99.90;;;;;;4883152;29;20499;-57
2021/12/25 12:41:24;;;;;;;4.53;1.75;;;-2.10;99.90;;;;;;4883830;29;20116;-57
2021/12/25 12:43:50;;;;;;;4.63;1.65;;;-2.00;99.90;;;;;;4882918;29;20049;-58
2021/12/25 12:46:16;;;;;;;5.15;2.17;;;-2.00;99.90;;;;;;4884134;29;20097;-59
2021/12/25 12:49:07;;;;;;;5.30;2.38;;;-2.00;99.90;;;;;;4884764;29;20048;-59
2021/12/25 12:51:35;;;;;;;4.82;2.20;;;-2.00;99.90;;;;;;4884295;29;20052;-58
2021/12/25 12:54:01;;;;;;;8.43;3.30;;;-2.00;99.90;;;;;;4883103;29;20045;-58
2021/12/25 12:56:27;;;;;;;4.60;2.20;;;-1.90;99.90;;;;;;4884553;29;20048;-59
2021/12/25 12:58:57;;;;;;;3.63;1.65;;;-1.90;99.90;;;;;;4866293;29;20100;-59
2021/12/25 13:01:24;;;;;;;8.20;2.88;;;-1.80;99.90;;;;;;4884001;29;20582;-59
2021/12/25 13:04:02;;;;;;;3.45;1.80;;;-1.70;99.90;;;;;;4882398;29;20605;-59
2021/12/25 13:06:30;;;;;;;5.38;1.50;;;-1.60;99.90;;;;;;4883979;29;20062;-58
2021/12/25 13:09:01;;;;;;;3.03;1.42;;;-1.40;99.90;;;;;;4883949;29;20040;-59
2021/12/25 13:11:33;;;;;;;5.20;1.80;;;-1.30;99.90;;;;;;4882928;29;20049;-59
2021/12/25 13:14:01;;;;;;;3.63;1.58;;;-1.20;99.90;;;;;;4884504;29;20048;-59
2021/12/25 13:16:36;;;;;;;5.90;1.73;;;-1.10;99.90;;;;;;4883035;29;20532;-59
2021/12/25 13:19:06;;;;;;;3.05;1.90;;;-1.00;99.90;;;;;;4883741;29;20051;-59
2021/12/25 13:21:35;;;;;;;3.30;1.50;;;-0.90;99.90;;;;;;4884547;29;20048;-59
2021/12/25 13:24:11;;;;;;;2.67;1.67;;;-0.90;99.90;;;;;;4883814;29;20500;-59
2021/12/25 13:26:42;;;;;;;3.55;1.42;;;-0.90;99.90;;;;;;4883477;29;20041;-59
2021/12/25 13:29:11;;;;;;;3.17;1.67;;;-0.90;99.90;;;;;;4882799;29;20059;-59
2021/12/25 13:31:40;;;;;;;4.90;1.50;;;-0.80;99.90;;;;;;4883025;29;20049;-59
2021/12/25 13:34:12;;;;;;;7.15;3.10;;;-0.80;99.90;;;;;;4883062;29;20433;-59
2021/12/25 13:36:39;;;;;;;4.00;2.03;;;-0.80;99.90;;;;;;4883610;29;20037;-58
2021/12/25 13:39:09;;;;;;;5.55;2.22;;;-0.90;99.90;;;;;;4883992;29;20056;-59
2021/12/25 13:41:45;;;;;;;2.83;1.60;;;-0.90;99.90;;;;;;4882725;29;20037;-58
2021/12/25 13:44:24;;;;;;;5.70;1.75;;;-1.00;99.90;;;;;;4881492;29;20048;-59
2021/12/25 13:46:53;;;;;;;3.15;1.58;;;-1.10;99.90;;;;;;4883180;29;20500;-59
2021/12/25 13:49:29;;;;;;;2.70;1.38;;;-1.20;99.90;;;;;;4866111;29;20537;-59
2021/12/25 13:51:57;;;;;;;4.32;2.30;;;-1.30;99.90;;;;;;4881801;29;20131;-60
2021/12/25 13:54:24;;;;;;;16.60;7.97;;;-1.30;99.90;;;;;;4883452;29;20504;-59
2021/12/25 13:56:51;;;;;;;4.50;2.95;;;-1.40;99.90;;;;;;4866796;29;20053;-58
2021/12/25 13:59:18;;;;;;;1.88;1.60;;;-1.50;99.90;;;;;;4882679;29;20526;-59
2021/12/25 14:01:44;;;;;;;2.92;1.63;;;-1.50;99.90;;;;;;4883468;29;20052;-59
2021/12/25 14:04:12;;;;;;;3.03;1.50;;;-1.50;99.90;;;;;;4864436;29;20053;-59
2021/12/25 14:06:39;;;;;;;4.95;1.60;;;-1.50;99.90;;;;;;4883232;29;20610;-58
2021/12/25 14:09:06;;;;;;;2.53;1.85;;;-1.50;99.90;;;;;;4883802;29;20504;-59
2021/12/25 14:11:32;;;;;;;3.25;1.65;;;-1.60;99.90;;;;;;4882524;29;20413;-59
2021/12/25 14:13:58;;;;;;;5.88;3.00;;;-1.60;99.90;;;;;;4882767;29;20056;-58
2021/12/25 14:16:24;;;;;;;4.13;2.00;;;-1.70;99.90;;;;;;4869008;29;20056;-59
2021/12/25 14:18:50;;;;;;;7.70;3.30;;;-1.70;99.90;;;;;;4869220;29;20063;-57
2021/12/25 14:21:19;;;;;;;4.18;2.20;;;-1.70;99.90;;;;;;4887224;29;20053;-58
2021/12/25 14:23:58;;;;;;;5.13;2.28;;;-1.80;99.90;;;;;;4869195;29;20563;-59
2021/12/25 14:26:24;;;;;;;8.15;3.30;;;-1.80;99.90;;;;;;4874916;29;20107;-59
2021/12/25 14:28:50;;;;;;;5.18;2.05;;;-1.80;99.90;;;;;;4886186;29;20048;-59